createdAt,value
2023-04-08T00:04:43.357Z,55.59
2023-04-08T00:09:45.445Z,56.75
2023-04-08T00:14:47.195Z,56.37
2023-04-08T00:19:48.861Z,56.94
2023-04-08T00:24:50.669Z,56.69
2023-04-08T00:29:52.341Z,57.55
2023-04-08T00:34:54.099Z,57.72
2023-04-08T00:39:55.729Z,58.27
2023-04-08T00:44:57.379Z,58.16
2023-04-08T00:49:59.210Z,58.85
2023-04-08T00:55:01.070Z,58.82
2023-04-08T01:00:07.881Z,58.82
2023-04-08T01:05:12.845Z,58.83
2023-04-08T01:10:22.288Z,58.92
2023-04-08T01:15:29.769Z,59.12
2023-04-08T01:20:32.025Z,58.83
2023-04-08T01:25:36.716Z,60.04
2023-04-08T01:30:40.606Z,59.56
2023-04-08T01:35:42.775Z,60.22
2023-04-08T01:40:45.041Z,59.88
2023-04-08T01:45:49.723Z,59.96
2023-04-08T01:50:53.000Z,60.75
2023-04-08T01:56:03.977Z,60.02
2023-04-08T02:01:12.652Z,60.40
2023-04-08T02:06:14.495Z,60.81
2023-04-08T02:11:16.494Z,60.31
2023-04-08T02:17:02.003Z,60.80
2023-04-08T02:22:09.725Z,61.23
2023-04-08T02:27:11.801Z,61.09
2023-04-08T02:32:15.482Z,60.99
2023-04-08T02:37:17.286Z,60.97
2023-04-08T02:42:18.896Z,60.75
2023-04-08T02:47:20.850Z,60.18
2023-04-08T02:52:22.533Z,60.00
2023-04-08T02:57:24.116Z,59.88
2023-04-08T03:02:25.764Z,60.12
2023-04-08T03:07:27.836Z,60.54
2023-04-08T03:12:29.492Z,60.34
2023-04-08T03:17:33.976Z,60.39
2023-04-08T03:22:36.657Z,60.92
2023-04-08T03:27:38.308Z,61.06
2023-04-08T03:32:40.069Z,61.71
2023-04-08T03:37:41.725Z,61.74
2023-04-08T03:42:43.454Z,60.80
2023-04-08T03:47:45.066Z,61.45
2023-04-08T03:52:46.691Z,62.38
2023-04-08T03:57:48.393Z,62.12
2023-04-08T04:02:50.034Z,61.57
2023-04-08T04:07:51.765Z,62.49
2023-04-08T04:12:53.369Z,62.46
2023-04-08T04:17:54.996Z,62.54
2023-04-08T04:22:56.591Z,62.09
2023-04-08T04:27:58.304Z,62.25
2023-04-08T04:32:59.928Z,62.79
2023-04-08T04:38:01.704Z,62.01
2023-04-08T04:43:03.296Z,61.83
2023-04-08T04:48:05.197Z,62.38
2023-04-08T04:53:06.825Z,63.48
2023-04-08T04:58:08.427Z,61.85
2023-04-08T05:03:10.646Z,61.77
2023-04-08T05:08:12.500Z,62.10
2023-04-08T05:13:14.170Z,63.10
2023-04-08T05:18:15.777Z,62.83
2023-04-08T05:23:17.493Z,63.55
2023-04-08T05:28:19.090Z,64.55
2023-04-08T05:33:21.186Z,63.63
2023-04-08T05:38:22.791Z,64.62
2023-04-08T05:43:24.722Z,64.86
2023-04-08T05:48:26.340Z,64.72
2023-04-08T05:53:28.095Z,65.03
2023-04-08T05:58:29.708Z,65.79
2023-04-08T06:03:31.410Z,66.26
2023-04-08T06:08:33.062Z,67.20
2023-04-08T06:13:34.633Z,68.49
2023-04-08T06:18:36.226Z,68.13
2023-04-08T06:23:39.038Z,69.16
2023-04-08T06:28:40.934Z,70.25
2023-04-08T06:33:42.524Z,69.73
2023-04-08T06:38:44.083Z,70.38
2023-04-08T06:43:45.691Z,69.61
2023-04-08T06:48:47.347Z,71.28
2023-04-08T06:53:49.193Z,72.47
2023-04-08T06:58:51.190Z,72.65
2023-04-08T07:03:53.013Z,72.28
2023-04-08T07:08:54.661Z,71.55
2023-04-08T07:13:56.321Z,73.06
2023-04-08T07:18:58.543Z,73.42
2023-04-08T07:24:00.308Z,73.65
2023-04-08T07:29:01.882Z,72.36
2023-04-08T07:34:03.537Z,73.43
2023-04-08T07:39:05.601Z,73.08
2023-04-08T07:44:07.681Z,72.74
2023-04-08T07:49:10.158Z,73.44
2023-04-08T07:54:12.658Z,75.24
2023-04-08T07:59:14.245Z,75.39
2023-04-08T08:04:16.236Z,75.46
2023-04-08T08:09:17.932Z,75.76
2023-04-08T08:14:19.591Z,74.96
2023-04-08T08:19:21.505Z,73.58
2023-04-08T08:24:23.176Z,72.92
2023-04-08T08:29:25.118Z,73.28
2023-04-08T08:34:27.152Z,73.71
2023-04-08T08:39:28.810Z,74.96
2023-04-08T08:44:30.912Z,74.40
2023-04-08T08:49:32.516Z,75.50
2023-04-08T08:54:34.305Z,74.37
2023-04-08T08:59:36.139Z,74.93
2023-04-08T09:04:37.826Z,75.88
2023-04-08T09:09:52.627Z,76.66
2023-04-08T09:15:07.737Z,76.59
2023-04-08T09:20:13.877Z,76.66
2023-04-08T09:25:28.565Z,74.93
2023-04-08T09:30:32.537Z,75.33
2023-04-08T09:35:34.227Z,75.12
2023-04-08T09:40:37.325Z,76.51
2023-04-08T09:45:42.807Z,76.21
2023-04-08T09:50:49.658Z,75.15
2023-04-08T09:55:53.391Z,74.95
2023-04-08T10:00:55.728Z,75.12
2023-04-08T10:06:01.354Z,73.76
2023-04-08T10:11:03.067Z,73.48
2023-04-08T10:16:20.959Z,72.47
2023-04-08T10:21:48.693Z,73.31
2023-04-08T10:26:50.334Z,73.07
2023-04-08T10:31:52.010Z,73.33
2023-04-08T10:36:55.801Z,73.31
2023-04-08T10:41:57.611Z,73.78
2023-04-08T10:47:01.278Z,74.31
2023-04-08T10:52:07.473Z,73.60
2023-04-08T10:57:09.180Z,75.29
2023-04-08T11:02:15.426Z,73.23
2023-04-08T11:07:20.167Z,72.92
2023-04-08T11:12:22.730Z,73.62
2023-04-08T11:17:24.386Z,73.47
2023-04-08T11:22:27.338Z,73.93
2023-04-08T11:27:29.674Z,74.19
2023-04-08T11:32:31.560Z,75.09
2023-04-08T11:37:42.627Z,75.67
2023-04-08T11:42:46.006Z,76.56
2023-04-08T11:47:49.092Z,74.97
2023-04-08T11:52:52.685Z,74.81
2023-04-08T11:57:55.606Z,76.42
2023-04-08T12:02:57.403Z,76.26
2023-04-08T12:07:59.292Z,74.85
2023-04-08T12:13:01.159Z,75.29
2023-04-08T12:18:02.866Z,76.39
2023-04-08T12:23:04.469Z,77.21
2023-04-08T12:28:06.122Z,76.19
2023-04-08T12:33:07.769Z,78.34
2023-04-08T12:38:09.454Z,76.85
2023-04-08T12:43:11.914Z,77.42
2023-04-08T12:48:13.957Z,78.27
2023-04-08T12:53:15.766Z,77.84
2023-04-08T12:58:17.424Z,76.70
2023-04-08T13:03:19.162Z,78.23
2023-04-08T13:08:20.782Z,77.30
2023-04-08T13:13:22.514Z,77.00
2023-04-08T13:18:24.189Z,77.66
2023-04-08T13:23:26.056Z,78.14
2023-04-08T13:28:27.645Z,77.56
2023-04-08T13:33:29.236Z,76.73
2023-04-08T13:38:30.876Z,76.33
2023-04-08T13:43:32.646Z,76.68
2023-04-08T13:48:34.244Z,76.23
2023-04-08T13:53:35.917Z,75.96
2023-04-08T13:58:37.921Z,77.46
2023-04-08T14:03:39.510Z,77.65
2023-04-08T14:08:41.578Z,78.31
2023-04-08T14:13:43.164Z,79.02
2023-04-08T14:18:44.749Z,78.06
2023-04-08T14:23:46.826Z,79.27
2023-04-08T14:28:49.024Z,78.52
2023-04-08T14:33:50.925Z,77.50
2023-04-08T14:38:53.019Z,78.27
2023-04-08T14:43:55.032Z,78.36
2023-04-08T14:48:56.923Z,78.18
2023-04-08T14:53:58.703Z,78.51
2023-04-08T14:59:00.260Z,78.57
2023-04-08T15:04:02.226Z,79.35
2023-04-08T15:09:03.909Z,80.92
2023-04-08T15:14:05.540Z,80.31
2023-04-08T15:19:07.202Z,81.35
2023-04-08T15:24:08.778Z,82.12
2023-04-08T15:29:10.360Z,81.49
2023-04-08T15:34:11.968Z,81.67
2023-04-08T15:39:13.592Z,82.33
2023-04-08T15:44:15.742Z,82.09
2023-04-08T15:49:17.369Z,82.31
2023-04-08T15:54:19.298Z,82.71
2023-04-08T15:59:21.164Z,81.58
2023-04-08T16:04:23.094Z,81.82
2023-04-08T16:09:27.073Z,82.01
2023-04-08T16:14:31.076Z,82.42
2023-04-08T16:19:32.742Z,81.67
2023-04-08T16:24:37.416Z,82.18
2023-04-08T16:29:39.080Z,82.60
2023-04-08T16:34:40.661Z,82.17
2023-04-08T16:39:42.356Z,82.18
2023-04-08T16:44:43.956Z,81.63
2023-04-08T16:49:45.592Z,81.77
2023-04-08T16:54:47.626Z,81.90
2023-04-08T16:59:49.199Z,80.29
2023-04-08T17:04:51.032Z,80.88
2023-04-08T17:09:52.790Z,81.05
2023-04-08T17:14:54.361Z,80.65
2023-04-08T17:19:55.943Z,80.98
2023-04-08T17:24:57.584Z,81.02
2023-04-08T17:29:59.271Z,80.26
2023-04-08T17:35:01.213Z,79.87
2023-04-08T17:40:03.086Z,79.73
2023-04-08T17:45:05.614Z,79.50
2023-04-08T17:50:09.285Z,78.73
2023-04-08T17:55:13.818Z,78.27
2023-04-08T18:00:16.432Z,78.28
2023-04-08T18:05:18.212Z,78.42
2023-04-08T18:10:19.917Z,77.49
2023-04-08T18:15:21.592Z,77.28
2023-04-08T18:20:23.181Z,78.09
2023-04-08T18:25:24.860Z,77.68
2023-04-08T18:30:26.877Z,77.91
2023-04-08T18:35:28.506Z,77.83
2023-04-08T18:40:31.427Z,78.14
2023-04-08T18:45:33.198Z,78.34
2023-04-08T18:50:35.032Z,77.94
2023-04-08T18:55:38.734Z,78.25
2023-04-08T19:00:43.863Z,78.65
2023-04-08T19:05:46.594Z,78.05
2023-04-08T19:10:48.136Z,78.20
2023-04-08T19:15:50.083Z,77.85
2023-04-08T19:20:51.862Z,77.45
2023-04-08T19:25:53.558Z,77.56
2023-04-08T19:30:55.132Z,78.85
2023-04-08T19:35:57.499Z,78.16
2023-04-08T19:40:59.195Z,77.49
2023-04-08T19:46:00.858Z,76.52
2023-04-08T19:51:03.425Z,77.50
2023-04-08T19:56:05.091Z,78.32
2023-04-08T20:01:07.517Z,76.71
2023-04-08T20:06:09.296Z,78.11
2023-04-08T20:11:11.409Z,78.18
2023-04-08T20:16:13.511Z,78.00
2023-04-08T20:21:15.204Z,77.96
2023-04-08T20:26:16.886Z,79.38
2023-04-08T20:31:19.328Z,77.90
2023-04-08T20:36:22.188Z,79.44
2023-04-08T20:41:24.489Z,78.99
2023-04-08T20:46:26.222Z,77.82
2023-04-08T20:51:27.882Z,80.30
2023-04-08T20:56:29.609Z,79.92
2023-04-08T21:01:31.549Z,80.98
2023-04-08T21:06:33.197Z,79.47
2023-04-08T21:11:34.894Z,78.88
2023-04-08T21:16:36.596Z,79.38
2023-04-08T21:21:38.268Z,79.15
2023-04-08T21:26:39.900Z,81.25
2023-04-08T21:31:42.062Z,79.68
2023-04-08T21:36:43.711Z,79.21
2023-04-08T21:41:45.307Z,79.77
2023-04-08T21:46:49.103Z,81.10
2023-04-08T21:51:50.678Z,83.39
2023-04-08T21:56:52.275Z,81.49
2023-04-08T22:01:54.156Z,81.28
2023-04-08T22:06:56.320Z,79.91
2023-04-08T22:11:57.945Z,81.65
2023-04-08T22:16:59.738Z,80.71
2023-04-08T22:22:01.440Z,81.89
2023-04-08T22:27:03.864Z,80.56
2023-04-08T22:32:05.849Z,81.01
2023-04-08T22:37:07.422Z,80.46
2023-04-08T22:42:09.001Z,80.11
2023-04-08T22:47:10.950Z,79.28
2023-04-08T22:52:12.547Z,79.61
2023-04-08T22:57:14.207Z,79.15
2023-04-08T23:02:15.881Z,78.09
2023-04-08T23:07:17.567Z,79.66
2023-04-08T23:12:19.178Z,78.81
2023-04-08T23:17:20.999Z,78.18
2023-04-08T23:22:22.606Z,77.38
2023-04-08T23:27:24.187Z,77.42
2023-04-08T23:32:26.467Z,78.22
2023-04-08T23:37:29.010Z,77.91
2023-04-08T23:42:30.688Z,78.50
2023-04-08T23:47:32.329Z,79.20
2023-04-08T23:52:33.932Z,78.46
2023-04-08T23:57:35.564Z,78.77
